sensor_id;sensor_type;location;lat;lon;timestamp;pressure;altitude;pressure_sealevel;temperature;humidity
49729;BME280;66333;49.798;10.968;2023-08-24T00:01:53;98459.03;;;24.60;53.84
49729;BME280;66333;49.798;10.968;2023-08-24T00:04:20;98453.13;;;24.58;53.69
49729;BME280;66333;49.798;10.968;2023-08-24T00:06:50;98435.97;;;24.59;53.58
49729;BME280;66333;49.798;10.968;2023-08-24T00:09:20;98432.72;;;24.57;53.38
49729;BME280;66333;49.798;10.968;2023-08-24T00:11:51;98431.59;;;24.53;53.48
49729;BME280;66333;49.798;10.968;2023-08-24T00:14:19;98430.53;;;24.54;53.61
49729;BME280;66333;49.798;10.968;2023-08-24T00:16:46;98427.38;;;24.57;53.69
49729;BME280;66333;49.798;10.968;2023-08-24T00:19:17;98434.13;;;24.60;53.49
49729;BME280;66333;49.798;10.968;2023-08-24T00:21:45;98429.00;;;24.58;53.57
49729;BME280;66333;49.798;10.968;2023-08-24T00:24:12;98430.06;;;24.57;53.31
49729;BME280;66333;49.798;10.968;2023-08-24T00:26:39;98431.59;;;24.53;53.42
49729;BME280;66333;49.798;10.968;2023-08-24T00:29:07;98431.59;;;24.53;53.49
49729;BME280;66333;49.798;10.968;2023-08-24T00:31:33;98420.88;;;24.53;53.59
49729;BME280;66333;49.798;10.968;2023-08-24T00:34:00;98431.59;;;24.53;53.51
49729;BME280;66333;49.798;10.968;2023-08-24T00:36:27;98424.25;;;24.48;53.62
49729;BME280;66333;49.798;10.968;2023-08-24T00:38:54;98425.06;;;24.49;53.59
49729;BME280;66333;49.798;10.968;2023-08-24T00:41:20;98421.81;;;24.47;53.48
49729;BME280;66333;49.798;10.968;2023-08-24T00:43:51;98420.53;;;24.50;53.61
49729;BME280;66333;49.798;10.968;2023-08-24T00:46:21;98412.72;;;24.48;53.63
49729;BME280;66333;49.798;10.968;2023-08-24T00:48:53;98412.72;;;24.48;53.62
49729;BME280;66333;49.798;10.968;2023-08-24T00:51:24;98419.38;;;24.45;53.46
49729;BME280;66333;49.798;10.968;2023-08-24T00:53:56;98417.53;;;24.46;53.52
49729;BME280;66333;49.798;10.968;2023-08-24T00:56:24;98421.25;;;24.45;53.37
49729;BME280;66333;49.798;10.968;2023-08-24T00:58:53;98415.31;;;24.43;53.34
49729;BME280;66333;49.798;10.968;2023-08-24T01:01:22;98414.59;;;24.47;53.16
49729;BME280;66333;49.798;10.968;2023-08-24T01:03:51;98413.09;;;24.40;53.32
49729;BME280;66333;49.798;10.968;2023-08-24T01:06:21;98408.31;;;24.42;53.37
49729;BME280;66333;49.798;10.968;2023-08-24T01:08:57;98415.31;;;24.43;53.28
49729;BME280;66333;49.798;10.968;2023-08-24T01:11:32;98402.50;;;24.45;53.30
49729;BME280;66333;49.798;10.968;2023-08-24T01:14:08;98411.56;;;24.44;53.38
49729;BME280;66333;49.798;10.968;2023-08-24T01:16:44;98405.56;;;24.37;53.64
49729;BME280;66333;49.798;10.968;2023-08-24T01:19:25;98404.38;;;24.33;53.29
49729;BME280;66333;49.798;10.968;2023-08-24T01:22:00;98404.50;;;24.38;53.24
49729;BME280;66333;49.798;10.968;2023-08-24T01:24:36;98407.19;;;24.38;53.34
49729;BME280;66333;49.798;10.968;2023-08-24T01:27:08;98400.66;;;24.34;53.53
49729;BME280;66333;49.798;10.968;2023-08-24T01:29:38;98412.31;;;24.28;53.44
49729;BME280;66333;49.798;10.968;2023-08-24T01:32:09;98408.81;;;24.27;53.84
49729;BME280;66333;49.798;10.968;2023-08-24T01:34:37;98415.09;;;24.33;53.58
49729;BME280;66333;49.798;10.968;2023-08-24T01:37:06;98415.44;;;24.25;53.79
49729;BME280;66333;49.798;10.968;2023-08-24T01:39:42;98413.47;;;24.32;53.18
49729;BME280;66333;49.798;10.968;2023-08-24T01:42:20;98413.00;;;24.35;53.47
49729;BME280;66333;49.798;10.968;2023-08-24T01:44:51;98409.75;;;24.33;53.44
49729;BME280;66333;49.798;10.968;2023-08-24T01:47:24;98403.34;;;24.34;53.16
49729;BME280;66333;49.798;10.968;2023-08-24T01:49:52;98409.16;;;24.31;53.37
49729;BME280;66333;49.798;10.968;2023-08-24T01:52:23;98409.03;;;24.26;53.36
49729;BME280;66333;49.798;10.968;2023-08-24T01:54:53;98403.66;;;24.26;53.70
49729;BME280;66333;49.798;10.968;2023-08-24T01:57:25;98404.63;;;24.19;53.88
49729;BME280;66333;49.798;10.968;2023-08-24T01:59:52;98403.00;;;24.18;53.59
49729;BME280;66333;49.798;10.968;2023-08-24T02:02:23;98398.22;;;24.20;53.30
49729;BME280;66333;49.798;10.968;2023-08-24T02:04:51;98397.75;;;24.24;53.33
49729;BME280;66333;49.798;10.968;2023-08-24T02:07:19;98395.78;;;24.19;53.33
49729;BME280;66333;49.798;10.968;2023-08-24T02:09:47;98394.38;;;24.16;53.76
49729;BME280;66333;49.798;10.968;2023-08-24T02:12:13;98398.94;;;24.16;53.46
49729;BME280;66333;49.798;10.968;2023-08-24T02:14:42;98390.56;;;24.12;53.49
49729;BME280;66333;49.798;10.968;2023-08-24T02:17:12;98384.47;;;24.17;53.51
49729;BME280;66333;49.798;10.968;2023-08-24T02:19:43;98382.41;;;24.19;53.38
49729;BME280;66333;49.798;10.968;2023-08-24T02:22:11;98387.97;;;24.17;53.48
49729;BME280;66333;49.798;10.968;2023-08-24T02:24:38;98388.34;;;24.09;53.39
49729;BME280;66333;49.798;10.968;2023-08-24T02:27:06;98390.66;;;24.17;53.10
49729;BME280;66333;49.798;10.968;2023-08-24T02:29:34;98388.13;;;24.11;53.49
49729;BME280;66333;49.798;10.968;2023-08-24T02:32:08;98391.13;;;24.14;53.18
49729;BME280;66333;49.798;10.968;2023-08-24T02:34:36;98400.69;;;24.10;53.54
49729;BME280;66333;49.798;10.968;2023-08-24T02:37:04;98398.72;;;24.06;53.75
49729;BME280;66333;49.798;10.968;2023-08-24T02:39:32;98396.63;;;24.08;53.37
49729;BME280;66333;49.798;10.968;2023-08-24T02:42:00;98400.69;;;24.10;53.46
49729;BME280;66333;49.798;10.968;2023-08-24T02:44:29;98395.34;;;24.10;53.26
49729;BME280;66333;49.798;10.968;2023-08-24T02:46:57;98396.97;;;24.11;53.07
49729;BME280;66333;49.798;10.968;2023-08-24T02:49:27;98396.38;;;24.09;53.41
49729;BME280;66333;49.798;10.968;2023-08-24T02:51:54;98402.31;;;24.11;53.06
49729;BME280;66333;49.798;10.968;2023-08-24T02:54:22;98405.47;;;24.08;53.08
49729;BME280;66333;49.798;10.968;2023-08-24T02:56:50;98404.88;;;24.06;53.38
49729;BME280;66333;49.798;10.968;2023-08-24T02:59:18;98412.22;;;24.11;53.35
49729;BME280;66333;49.798;10.968;2023-08-24T03:01:48;98416.16;;;24.08;53.00
49729;BME280;66333;49.798;10.968;2023-08-24T03:04:17;98423.38;;;24.08;53.44
49729;BME280;66333;49.798;10.968;2023-08-24T03:06:46;98421.53;;;24.08;53.38
49729;BME280;66333;49.798;10.968;2023-08-24T03:09:14;98415.59;;;24.06;53.38
49729;BME280;66333;49.798;10.968;2023-08-24T03:11:41;98421.44;;;24.03;53.08
49729;BME280;66333;49.798;10.968;2023-08-24T03:14:10;98422.25;;;24.04;53.31
49729;BME280;66333;49.798;10.968;2023-08-24T03:16:38;98422.94;;;23.99;53.52
49729;BME280;66333;49.798;10.968;2023-08-24T03:19:06;98420.75;;;23.96;53.52
49729;BME280;66333;49.798;10.968;2023-08-24T03:21:34;98425.63;;;23.99;53.36
49729;BME280;66333;49.798;10.968;2023-08-24T03:24:07;98428.03;;;24.01;53.13
49729;BME280;66333;49.798;10.968;2023-08-24T03:26:36;98427.25;;;24.00;53.21
49729;BME280;66333;49.798;10.968;2023-08-24T03:29:04;98424.00;;;23.98;53.40
49729;BME280;66333;49.798;10.968;2023-08-24T03:31:31;98419.44;;;23.99;53.38
49729;BME280;66333;49.798;10.968;2023-08-24T03:34:00;98418.63;;;23.98;53.25
49729;BME280;66333;49.798;10.968;2023-08-24T03:36:29;98415.38;;;23.96;53.32
49729;BME280;66333;49.798;10.968;2023-08-24T03:38:57;98410.50;;;23.93;53.40
49729;BME280;66333;49.798;10.968;2023-08-24T03:41:26;98409.66;;;23.92;53.54
49729;BME280;66333;49.798;10.968;2023-08-24T03:43:54;98410.28;;;23.95;52.98
49729;BME280;66333;49.798;10.968;2023-08-24T03:46:21;98409.47;;;23.94;53.36
49729;BME280;66333;49.798;10.968;2023-08-24T03:48:49;98401.44;;;23.94;53.28
49729;BME280;66333;49.798;10.968;2023-08-24T03:51:16;98415.88;;;23.93;53.02
49729;BME280;66333;49.798;10.968;2023-08-24T03:53:45;98409.66;;;23.92;53.24
49729;BME280;66333;49.798;10.968;2023-08-24T03:56:13;98400.25;;;23.90;53.30
49729;BME280;66333;49.798;10.968;2023-08-24T03:58:48;98403.97;;;23.89;53.20
49729;BME280;66333;49.798;10.968;2023-08-24T04:01:18;98397.00;;;23.88;53.13
49729;BME280;66333;49.798;10.968;2023-08-24T04:03:45;98396.19;;;23.87;52.96
49729;BME280;66333;49.798;10.968;2023-08-24T04:06:14;98395.38;;;23.87;53.13
49729;BME280;66333;49.798;10.968;2023-08-24T04:08:50;98400.59;;;23.82;53.32
49729;BME280;66333;49.798;10.968;2023-08-24T04:11:18;98392.00;;;23.80;53.39
49729;BME280;66333;49.798;10.968;2023-08-24T04:13:50;98390.97;;;23.81;53.44
49729;BME280;66333;49.798;10.968;2023-08-24T04:16:17;98392.69;;;23.75;53.52
49729;BME280;66333;49.798;10.968;2023-08-24T04:18:45;98394.56;;;23.75;53.50
49729;BME280;66333;49.798;10.968;2023-08-24T04:21:12;98403.75;;;23.79;53.47
49729;BME280;66333;49.798;10.968;2023-08-24T04:23:38;98393.28;;;23.77;53.07
49729;BME280;66333;49.798;10.968;2023-08-24T04:26:12;98388.50;;;23.79;53.27
49729;BME280;66333;49.798;10.968;2023-08-24T04:28:40;98393.06;;;23.79;53.06
49729;BME280;66333;49.798;10.968;2023-08-24T04:31:09;98386.09;;;23.78;53.12
49729;BME280;66333;49.798;10.968;2023-08-24T04:33:37;98390.00;;;23.75;53.27
49729;BME280;66333;49.798;10.968;2023-08-24T04:36:05;98389.81;;;23.77;53.31
49729;BME280;66333;49.798;10.968;2023-08-24T04:38:33;98388.19;;;23.76;53.33
49729;BME280;66333;49.798;10.968;2023-08-24T04:41:03;98393.16;;;23.72;53.06
49729;BME280;66333;49.798;10.968;2023-08-24T04:43:33;98406.31;;;23.74;53.38
49729;BME280;66333;49.798;10.968;2023-08-24T04:46:04;98405.88;;;23.77;53.21
49729;BME280;66333;49.798;10.968;2023-08-24T04:48:32;98406.31;;;23.74;53.28
49729;BME280;66333;49.798;10.968;2023-08-24T04:51:02;98405.75;;;23.72;53.13
49729;BME280;66333;49.798;10.968;2023-08-24T04:53:30;98404.69;;;23.73;52.97
49729;BME280;66333;49.798;10.968;2023-08-24T04:55:58;98405.75;;;23.72;53.19
49729;BME280;66333;49.798;10.968;2023-08-24T04:58:26;98403.53;;;23.69;52.96
49729;BME280;66333;49.798;10.968;2023-08-24T05:00:54;98415.88;;;23.70;53.23
49729;BME280;66333;49.798;10.968;2023-08-24T05:03:22;98406.78;;;23.71;53.17
49729;BME280;66333;49.798;10.968;2023-08-24T05:05:52;98407.28;;;23.68;53.28
49729;BME280;66333;49.798;10.968;2023-08-24T05:08:19;98399.00;;;23.69;53.24
49729;BME280;66333;49.798;10.968;2023-08-24T05:10:47;98394.91;;;23.67;53.06
49729;BME280;66333;49.798;10.968;2023-08-24T05:13:15;98392.72;;;23.63;53.01
49729;BME280;66333;49.798;10.968;2023-08-24T05:15:42;98384.06;;;23.50;53.78
49729;BME280;66333;49.798;10.968;2023-08-24T05:18:10;98375.69;;;23.46;53.60
49729;BME280;66333;49.798;10.968;2023-08-24T05:23:56;98391.88;;;23.51;53.71
49729;BME280;66333;49.798;10.968;2023-08-24T05:26:24;98395.88;;;23.60;53.58
49729;BME280;66333;49.798;10.968;2023-08-24T05:28:53;98392.13;;;23.61;53.44
49729;BME280;66333;49.798;10.968;2023-08-24T05:31:19;98388.03;;;23.59;53.21
49729;BME280;66333;49.798;10.968;2023-08-24T05:33:47;98397.81;;;23.65;53.01
49729;BME280;66333;49.798;10.968;2023-08-24T05:36:14;98400.75;;;23.63;53.08
49729;BME280;66333;49.798;10.968;2023-08-24T05:38:42;98397.72;;;23.60;53.31
49729;BME280;66333;49.798;10.968;2023-08-24T05:41:14;98391.56;;;23.59;53.20
49729;BME280;66333;49.798;10.968;2023-08-24T05:43:42;98390.50;;;23.60;53.44
49729;BME280;66333;49.798;10.968;2023-08-24T05:46:10;98375.94;;;23.45;53.55
49729;BME280;66333;49.798;10.968;2023-08-24T05:48:37;98371.41;;;23.45;53.60
49729;BME280;66333;49.798;10.968;2023-08-24T05:51:05;98368.84;;;23.50;53.30
49729;BME280;66333;49.798;10.968;2023-08-24T05:53:35;98363.94;;;23.47;53.47
49729;BME280;66333;49.798;10.968;2023-08-24T05:56:03;98354.75;;;23.55;53.27
49729;BME280;66333;49.798;10.968;2023-08-24T05:58:36;98353.38;;;23.52;53.54
49729;BME280;66333;49.798;10.968;2023-08-24T06:01:04;98340.22;;;23.39;53.96
49729;BME280;66333;49.798;10.968;2023-08-24T06:03:32;98333.72;;;23.35;54.00
49729;BME280;66333;49.798;10.968;2023-08-24T06:06:04;98318.84;;;23.39;53.98
49729;BME280;66333;49.798;10.968;2023-08-24T06:08:32;98315.81;;;23.47;53.39
49729;BME280;66333;49.798;10.968;2023-08-24T06:11:02;98310.34;;;23.42;53.67
49729;BME280;66333;49.798;10.968;2023-08-24T06:13:29;98308.72;;;23.41;53.87
49729;BME280;66333;49.798;10.968;2023-08-24T06:16:05;98306.88;;;23.42;53.61
49729;BME280;66333;49.798;10.968;2023-08-24T06:18:32;98292.44;;;23.43;53.91
49729;BME280;66333;49.798;10.968;2023-08-24T06:21:00;98286.94;;;23.49;53.67
49729;BME280;66333;49.798;10.968;2023-08-24T06:23:30;98283.50;;;23.37;53.52
49729;BME280;66333;49.798;10.968;2023-08-24T06:26:00;98290.81;;;23.42;53.77
49729;BME280;66333;49.798;10.968;2023-08-24T06:28:31;98287.19;;;23.48;53.28
49729;BME280;66333;49.798;10.968;2023-08-24T06:31:02;98289.41;;;23.51;53.40
49729;BME280;66333;49.798;10.968;2023-08-24T06:33:33;98288.13;;;23.53;53.29
49729;BME280;66333;49.798;10.968;2023-08-24T06:36:01;98288.13;;;23.53;53.06
49729;BME280;66333;49.798;10.968;2023-08-24T06:38:32;98298.25;;;23.51;53.07
49729;BME280;66333;49.798;10.968;2023-08-24T06:41:00;98299.31;;;23.50;53.21
49729;BME280;66333;49.798;10.968;2023-08-24T06:43:27;98307.91;;;23.52;53.35
49729;BME280;66333;49.798;10.968;2023-08-24T06:45:55;98307.66;;;23.54;53.15
49729;BME280;66333;49.798;10.968;2023-08-24T06:48:24;98306.28;;;23.51;53.12
49729;BME280;66333;49.798;10.968;2023-08-24T06:50:51;98305.22;;;23.52;53.45
49729;BME280;66333;49.798;10.968;2023-08-24T06:53:19;98311.63;;;23.51;53.08
49729;BME280;66333;49.798;10.968;2023-08-24T06:55:54;98313.97;;;23.59;53.14
49729;BME280;66333;49.798;10.968;2023-08-24T06:58:20;98312.78;;;23.55;53.41
49729;BME280;66333;49.798;10.968;2023-08-24T07:00:50;98324.03;;;23.57;53.06
49729;BME280;66333;49.798;10.968;2023-08-24T07:03:19;98330.13;;;23.53;53.33
49729;BME280;66333;49.798;10.968;2023-08-24T07:05:48;98336.84;;;23.55;53.08
49729;BME280;66333;49.798;10.968;2023-08-24T07:08:21;98342.91;;;23.27;54.40
49729;BME280;66333;49.798;10.968;2023-08-24T07:10:51;98350.78;;;22.69;55.86
49729;BME280;66333;49.798;10.968;2023-08-24T07:13:21;98364.28;;;22.74;56.05
49729;BME280;66333;49.798;10.968;2023-08-24T07:15:49;98365.97;;;22.57;56.35
49729;BME280;66333;49.798;10.968;2023-08-24T07:18:17;98373.69;;;22.46;56.40
49729;BME280;66333;49.798;10.968;2023-08-24T07:20:45;98383.56;;;22.46;56.42
49729;BME280;66333;49.798;10.968;2023-08-24T07:23:14;98384.84;;;22.43;56.80
49729;BME280;66333;49.798;10.968;2023-08-24T07:25:42;98374.88;;;22.50;56.42
49729;BME280;66333;49.798;10.968;2023-08-24T07:28:10;98391.19;;;22.61;56.71
49729;BME280;66333;49.798;10.968;2023-08-24T07:30:38;98392.38;;;22.65;56.29
49729;BME280;66333;49.798;10.968;2023-08-24T07:33:05;98399.66;;;22.58;56.48
49729;BME280;66333;49.798;10.968;2023-08-24T07:35:34;98395.72;;;22.60;56.33
49729;BME280;66333;49.798;10.968;2023-08-24T07:38:01;98402.59;;;22.68;56.38
49729;BME280;66333;49.798;10.968;2023-08-24T07:40:36;98394.16;;;22.52;56.72
49729;BME280;66333;49.798;10.968;2023-08-24T07:43:03;98397.88;;;22.51;56.92
49729;BME280;66333;49.798;10.968;2023-08-24T07:45:31;98388.09;;;22.45;57.10
49729;BME280;66333;49.798;10.968;2023-08-24T07:48:04;98381.06;;;22.63;57.24
49729;BME280;66333;49.798;10.968;2023-08-24T07:50:32;98386.09;;;22.71;56.60
49729;BME280;66333;49.798;10.968;2023-08-24T07:53:00;98397.38;;;22.73;56.28
49729;BME280;66333;49.798;10.968;2023-08-24T07:55:28;98405.38;;;22.73;56.44
49729;BME280;66333;49.798;10.968;2023-08-24T07:57:57;98403.69;;;22.78;56.42
49729;BME280;66333;49.798;10.968;2023-08-24T08:00:23;98389.66;;;22.83;56.23
49729;BME280;66333;49.798;10.968;2023-08-24T08:02:52;98385.63;;;22.92;55.63
49729;BME280;66333;49.798;10.968;2023-08-24T08:05:20;98384.13;;;22.96;55.30
49729;BME280;66333;49.798;10.968;2023-08-24T08:07:51;98377.88;;;23.02;55.50
49729;BME280;66333;49.798;10.968;2023-08-24T08:10:21;98375.88;;;22.98;55.24
49729;BME280;66333;49.798;10.968;2023-08-24T08:12:51;98378.06;;;22.89;55.59
49729;BME280;66333;49.798;10.968;2023-08-24T08:15:23;98382.50;;;22.95;55.67
49729;BME280;66333;49.798;10.968;2023-08-24T08:17:51;98387.50;;;23.03;55.40
49729;BME280;66333;49.798;10.968;2023-08-24T08:20:20;98378.44;;;23.04;55.46
49729;BME280;66333;49.798;10.968;2023-08-24T08:22:49;98374.53;;;23.30;54.51
49729;BME280;66333;49.798;10.968;2023-08-24T08:25:15;98372.75;;;23.13;54.95
49729;BME280;66333;49.798;10.968;2023-08-24T08:27:43;98376.25;;;23.01;55.12
49729;BME280;66333;49.798;10.968;2023-08-24T08:30:13;98373.00;;;22.99;55.11
49729;BME280;66333;49.798;10.968;2023-08-24T08:32:44;98374.19;;;23.27;55.06
49729;BME280;66333;49.798;10.968;2023-08-24T08:35:12;98365.91;;;23.40;54.41
49729;BME280;66333;49.798;10.968;2023-08-24T08:37:40;98363.03;;;23.53;52.85
49729;BME280;66333;49.798;10.968;2023-08-24T08:40:10;98361.75;;;23.56;54.10
49729;BME280;66333;49.798;10.968;2023-08-24T08:42:38;98365.38;;;23.61;53.57
49729;BME280;66333;49.798;10.968;2023-08-24T08:45:09;98361.19;;;23.42;54.65
49729;BME280;66333;49.798;10.968;2023-08-24T08:47:37;98363.25;;;23.40;54.74
49729;BME280;66333;49.798;10.968;2023-08-24T08:50:09;98359.44;;;23.36;54.93
49729;BME280;66333;49.798;10.968;2023-08-24T08:52:37;98357.69;;;23.53;54.23
49729;BME280;66333;49.798;10.968;2023-08-24T08:55:05;98350.00;;;23.45;54.73
49729;BME280;66333;49.798;10.968;2023-08-24T08:57:36;98327.09;;;23.38;55.12
49729;BME280;66333;49.798;10.968;2023-08-24T09:00:07;98312.66;;;23.39;54.85
49729;BME280;66333;49.798;10.968;2023-08-24T09:02:36;98303.75;;;23.33;55.16
49729;BME280;66333;49.798;10.968;2023-08-24T09:05:04;98300.94;;;23.28;55.13
49729;BME280;66333;49.798;10.968;2023-08-24T09:07:39;98282.78;;;23.30;55.06
49729;BME280;66333;49.798;10.968;2023-08-24T09:10:07;98274.41;;;23.38;55.04
49729;BME280;66333;49.798;10.968;2023-08-24T09:12:35;98258.84;;;23.35;55.23
49729;BME280;66333;49.798;10.968;2023-08-24T09:15:04;98253.94;;;23.32;54.85
49729;BME280;66333;49.798;10.968;2023-08-24T09:17:32;98271.97;;;23.36;55.13
49729;BME280;66333;49.798;10.968;2023-08-24T09:20:06;98289.31;;;23.34;55.10
49729;BME280;66333;49.798;10.968;2023-08-24T09:22:36;98296.03;;;23.48;54.63
49729;BME280;66333;49.798;10.968;2023-08-24T09:25:05;98287.22;;;23.59;54.21
49729;BME280;66333;49.798;10.968;2023-08-24T09:27:34;98284.06;;;23.51;54.21
49729;BME280;66333;49.798;10.968;2023-08-24T09:30:02;98274.19;;;23.51;54.66
49729;BME280;66333;49.798;10.968;2023-08-24T09:32:32;98269.50;;;23.58;54.52
49729;BME280;66333;49.798;10.968;2023-08-24T09:35:08;98287.22;;;23.59;54.30
49729;BME280;66333;49.798;10.968;2023-08-24T09:37:37;98285.31;;;23.48;54.71
49729;BME280;66333;49.798;10.968;2023-08-24T09:40:07;98282.41;;;23.50;54.70
49729;BME280;66333;49.798;10.968;2023-08-24T09:42:38;98284.28;;;23.73;53.53
49729;BME280;66333;49.798;10.968;2023-08-24T09:45:12;98279.50;;;23.75;53.85
49729;BME280;66333;49.798;10.968;2023-08-24T09:47:46;98273.69;;;23.78;53.02
49729;BME280;66333;49.798;10.968;2023-08-24T09:50:16;98284.84;;;23.75;53.70
49729;BME280;66333;49.798;10.968;2023-08-24T09:52:47;98272.72;;;23.84;53.74
49729;BME280;66333;49.798;10.968;2023-08-24T09:55:20;98269.81;;;23.85;53.02
49729;BME280;66333;49.798;10.968;2023-08-24T09:57:53;98259.25;;;23.79;53.72
49729;BME280;66333;49.798;10.968;2023-08-24T10:00:25;98242.03;;;23.75;53.77
49729;BME280;66333;49.798;10.968;2023-08-24T10:02:54;98241.84;;;23.64;54.39
49729;BME280;66333;49.798;10.968;2023-08-24T10:05:23;98230.69;;;23.68;54.27
49729;BME280;66333;49.798;10.968;2023-08-24T10:07:55;98224.53;;;23.84;53.30
49729;BME280;66333;49.798;10.968;2023-08-24T10:10:26;98222.91;;;23.83;53.41
49729;BME280;66333;49.798;10.968;2023-08-24T10:13:00;98223.78;;;23.72;54.17
49729;BME280;66333;49.798;10.968;2023-08-24T10:15:36;98230.31;;;23.76;54.26
49729;BME280;66333;49.798;10.968;2023-08-24T10:18:15;98228.44;;;23.76;54.24
49729;BME280;66333;49.798;10.968;2023-08-24T10:20:43;98219.69;;;23.81;53.94
49729;BME280;66333;49.798;10.968;2023-08-24T10:23:12;98219.47;;;23.71;54.04
49729;BME280;66333;49.798;10.968;2023-08-24T10:25:43;98213.81;;;23.67;54.49
49729;BME280;66333;49.798;10.968;2023-08-24T10:28:14;98225.03;;;23.81;53.75
49729;BME280;66333;49.798;10.968;2023-08-24T10:30:44;98223.41;;;23.80;53.83
49729;BME280;66333;49.798;10.968;2023-08-24T10:33:13;98213.75;;;23.79;54.27
49729;BME280;66333;49.798;10.968;2023-08-24T10:35:43;98195.03;;;23.79;54.22
49729;BME280;66333;49.798;10.968;2023-08-24T10:38:24;98199.22;;;23.75;54.23
49729;BME280;66333;49.798;10.968;2023-08-24T10:40:54;98199.22;;;23.75;54.36
49729;BME280;66333;49.798;10.968;2023-08-24T10:43:24;98188.50;;;23.75;54.09
49729;BME280;66333;49.798;10.968;2023-08-24T10:45:58;98178.84;;;23.74;54.33
49729;BME280;66333;49.798;10.968;2023-08-24T10:48:29;98178.63;;;23.75;54.60
49729;BME280;66333;49.798;10.968;2023-08-24T10:51:23;98170.22;;;23.83;53.98
49729;BME280;66333;49.798;10.968;2023-08-24T10:53:56;98169.22;;;23.73;54.60
49729;BME280;66333;49.798;10.968;2023-08-24T10:56:35;98146.38;;;23.82;54.19
49729;BME280;66333;49.798;10.968;2023-08-24T10:59:13;98147.84;;;23.89;54.00
49729;BME280;66333;49.798;10.968;2023-08-24T11:01:41;98148.66;;;23.90;54.42
49729;BME280;66333;49.798;10.968;2023-08-24T11:04:11;98153.34;;;23.83;54.00
49729;BME280;66333;49.798;10.968;2023-08-24T11:06:54;98145.91;;;23.85;54.36
49729;BME280;66333;49.798;10.968;2023-08-24T11:09:44;98132.13;;;23.93;54.44
49729;BME280;66333;49.798;10.968;2023-08-24T11:12:15;98124.66;;;23.95;54.71
49729;BME280;66333;49.798;10.968;2023-08-24T11:14:54;98135.38;;;23.95;54.81
49729;BME280;66333;49.798;10.968;2023-08-24T11:17:30;98131.94;;;24.00;54.76
49729;BME280;66333;49.798;10.968;2023-08-24T11:20:00;98142.34;;;23.96;54.54
49729;BME280;66333;49.798;10.968;2023-08-24T11:22:28;98142.97;;;23.86;54.61
49729;BME280;66333;49.798;10.968;2023-08-24T11:24:58;98128.72;;;23.98;54.58
49729;BME280;66333;49.798;10.968;2023-08-24T11:27:26;98127.41;;;24.00;54.84
49729;BME280;66333;49.798;10.968;2023-08-24T11:30:00;98118.31;;;24.01;54.83
49729;BME280;66333;49.798;10.968;2023-08-24T11:32:31;98124.28;;;24.03;54.16
49729;BME280;66333;49.798;10.968;2023-08-24T11:34:59;98126.13;;;24.03;54.31
49729;BME280;66333;49.798;10.968;2023-08-24T11:37:26;98125.63;;;24.06;54.69
49729;BME280;66333;49.798;10.968;2023-08-24T11:39:54;98122.72;;;24.07;54.65
49729;BME280;66333;49.798;10.968;2023-08-24T11:42:25;98113.16;;;24.11;53.70
49729;BME280;66333;49.798;10.968;2023-08-24T11:44:56;98108.94;;;24.15;53.97
49729;BME280;66333;49.798;10.968;2023-08-24T11:47:23;98109.66;;;24.28;52.62
49729;BME280;66333;49.798;10.968;2023-08-24T11:49:51;98110.56;;;24.50;52.55
49729;BME280;66333;49.798;10.968;2023-08-24T11:52:19;98118.34;;;24.35;54.47
49729;BME280;66333;49.798;10.968;2023-08-24T11:54:45;98106.50;;;24.31;54.48
49729;BME280;66333;49.798;10.968;2023-08-24T11:57:13;98106.50;;;24.31;54.75
49729;BME280;66333;49.798;10.968;2023-08-24T11:59:43;98095.78;;;24.31;54.63
49729;BME280;66333;49.798;10.968;2023-08-24T12:02:11;98096.28;;;24.28;54.98
49729;BME280;66333;49.798;10.968;2023-08-24T12:04:39;98091.47;;;24.30;54.16
49729;BME280;66333;49.798;10.968;2023-08-24T12:07:09;98090.13;;;24.27;54.14
49729;BME280;66333;49.798;10.968;2023-08-24T12:09:37;98084.25;;;24.30;54.34
49729;BME280;66333;49.798;10.968;2023-08-24T12:12:12;98077.03;;;24.31;55.15
49729;BME280;66333;49.798;10.968;2023-08-24T12:14:45;98078.09;;;24.30;54.62
49729;BME280;66333;49.798;10.968;2023-08-24T12:17:15;98072.75;;;24.30;53.86
49729;BME280;66333;49.798;10.968;2023-08-24T12:19:45;98066.44;;;24.36;53.90
49729;BME280;66333;49.798;10.968;2023-08-24T12:22:16;98073.41;;;24.37;54.72
49729;BME280;66333;49.798;10.968;2023-08-24T12:24:46;98061.09;;;24.36;53.99
49729;BME280;66333;49.798;10.968;2023-08-24T12:27:22;98047.19;;;24.39;54.65
49729;BME280;66333;49.798;10.968;2023-08-24T12:29:51;98048.72;;;24.35;53.94
49729;BME280;66333;49.798;10.968;2023-08-24T12:32:20;98050.97;;;24.43;53.74
49729;BME280;66333;49.798;10.968;2023-08-24T12:34:50;98054.47;;;24.43;54.85
49729;BME280;66333;49.798;10.968;2023-08-24T12:37:18;98048.88;;;24.45;54.46
49729;BME280;66333;49.798;10.968;2023-08-24T12:39:48;98052.13;;;24.47;54.72
49729;BME280;66333;49.798;10.968;2023-08-24T12:42:17;98050.00;;;24.49;54.83
49729;BME280;66333;49.798;10.968;2023-08-24T12:44:45;98052.13;;;24.47;54.65
49729;BME280;66333;49.798;10.968;2023-08-24T12:47:14;98038.47;;;24.48;54.55
49729;BME280;66333;49.798;10.968;2023-08-24T12:49:41;98035.53;;;24.50;54.33
49729;BME280;66333;49.798;10.968;2023-08-24T12:52:09;98033.94;;;24.49;54.37
49729;BME280;66333;49.798;10.968;2023-08-24T12:54:39;98028.91;;;24.53;54.32
49729;BME280;66333;49.798;10.968;2023-08-24T12:57:06;98026.44;;;24.51;54.40
49729;BME280;66333;49.798;10.968;2023-08-24T12:59:34;98022.22;;;24.55;55.06
49729;BME280;66333;49.798;10.968;2023-08-24T13:02:02;98017.84;;;24.49;53.84
49729;BME280;66333;49.798;10.968;2023-08-24T13:04:32;98006.63;;;24.52;54.07
49729;BME280;66333;49.798;10.968;2023-08-24T13:07:00;98009.38;;;24.57;54.53